Time;durP1;ratioP1;P1;durP2;ratioP2;P2;SDS_P1;SDS_P2;PMS_P1;PMS_P2;Temp;Humidity;BMP_temperature;BMP_pressure;BME280_temperature;BME280_humidity;BME280_pressure;Samples;Min_cycle;Max_cycle;Signal;HPM_P1;HPM_P2
2022/07/10 00:01:22;;;;;;;;;;;;;;;28.08;38.20;100444.83;105357;1300;62016;-81
2022/07/10 00:03:49;;;;;;;;;;;;;;;28.08;38.13;100442.48;105339;1299;62062;-81
2022/07/10 00:06:16;;;;;;;;;;;;;;;28.08;38.28;100439.41;105317;1300;73737;-81
2022/07/10 00:08:42;;;;;;;;;;;;;;;28.08;38.20;100440.86;105266;1300;62023;-81
2022/07/10 00:11:08;;;;;;;;;;;;;;;28.07;37.96;100438.52;105262;1300;62035;-81
2022/07/10 00:13:34;;;;;;;;;;;;;;;28.08;38.29;100438.14;105233;1300;62457;-81
2022/07/10 00:16:01;;;;;;;;;;;;;;;28.07;38.07;100437.30;105372;1300;62098;-81
2022/07/10 00:18:26;;;;;;;;;;;;;;;28.07;38.19;100435.50;105300;1300;62091;-81
2022/07/10 00:20:52;;;;;;;;;;;;;;;28.07;37.95;100432.83;105273;1300;62070;-81
2022/07/10 00:23:17;;;;;;;;;;;;;;;28.07;38.38;100428.31;105251;1300;62110;-81
2022/07/10 00:25:43;;;;;;;;;;;;;;;28.07;38.26;100435.53;105355;1299;62101;-81
2022/07/10 00:28:08;;;;;;;;;;;;;;;28.06;38.22;100428.89;105308;1300;62059;-81
2022/07/10 00:30:33;;;;;;;;;;;;;;;28.07;38.26;100429.02;105240;1300;62174;-81
2022/07/10 00:32:59;;;;;;;;;;;;;;;28.06;38.21;100422.23;105361;1299;62083;-81
2022/07/10 00:35:28;;;;;;;;;;;;;;;28.06;38.15;100422.75;105360;1300;62055;-81
2022/07/10 00:37:53;;;;;;;;;;;;;;;28.06;38.27;100421.49;105243;1300;62084;-81
2022/07/10 00:40:19;;;;;;;;;;;;;;;28.06;38.22;100422.92;105258;1300;62177;-81
2022/07/10 00:42:45;;;;;;;;;;;;;;;28.06;38.44;100420.77;105235;1300;62077;-81
2022/07/10 00:45:11;;;;;;;;;;;;;;;28.06;38.38;100418.79;105314;1300;62158;-81
2022/07/10 00:47:37;;;;;;;;;;;;;;;28.06;38.20;100417.88;105398;1300;62046;-81
2022/07/10 00:50:03;;;;;;;;;;;;;;;28.06;37.97;100415.75;105247;1300;74884;-81
2022/07/10 00:52:28;;;;;;;;;;;;;;;28.06;38.22;100415.35;105272;1299;61950;-81
2022/07/10 00:54:54;;;;;;;;;;;;;;;28.05;38.38;100412.51;105234;1300;62149;-81
2022/07/10 00:57:19;;;;;;;;;;;;;;;28.06;38.44;100413.04;105277;1300;62113;-81
2022/07/10 00:59:45;;;;;;;;;;;;;;;28.06;38.36;100404.73;105238;1300;62234;-81
2022/07/10 01:02:11;;;;;;;;;;;;;;;28.05;38.28;100408.73;105272;1300;62087;-81
2022/07/10 01:04:36;;;;;;;;;;;;;;;28.05;38.14;100405.50;105338;1300;62197;-81
2022/07/10 01:07:01;;;;;;;;;;;;;;;28.05;38.15;100406.05;105261;1300;59929;-81
2022/07/10 01:09:29;;;;;;;;;;;;;;;28.05;38.00;100402.09;105351;1300;62075;-81
2022/07/10 01:11:54;;;;;;;;;;;;;;;28.05;38.09;100405.88;105336;1299;62102;-81
2022/07/10 01:14:20;;;;;;;;;;;;;;;28.05;38.23;100400.11;105247;1300;62171;-81
2022/07/10 01:16:45;;;;;;;;;;;;;;;28.05;38.27;100399.37;105285;1300;62075;-81
2022/07/10 01:19:10;;;;;;;;;;;;;;;28.05;38.31;100400.48;105340;1299;62084;-81
2022/07/10 01:21:36;;;;;;;;;;;;;;;28.04;38.20;100401.40;105269;1299;62205;-81
2022/07/10 01:24:06;;;;;;;;;;;;;;;28.05;38.29;100400.11;105373;1300;62170;-81
2022/07/10 01:26:32;;;;;;;;;;;;;;;28.04;38.34;100396.52;105260;1300;77000;-81
2022/07/10 01:28:58;;;;;;;;;;;;;;;28.04;38.21;100397.64;105276;1299;62162;-81
2022/07/10 01:31:24;;;;;;;;;;;;;;;28.04;38.09;100396.73;105253;1299;62053;-81
2022/07/10 01:33:50;;;;;;;;;;;;;;;28.04;38.13;100390.96;105333;1299;62051;-81
2022/07/10 01:36:16;;;;;;;;;;;;;;;28.04;37.91;100390.96;105363;1300;62140;-81
2022/07/10 01:38:41;;;;;;;;;;;;;;;28.04;38.25;100388.83;105299;1298;62027;-81
2022/07/10 01:41:08;;;;;;;;;;;;;;;28.04;37.88;100386.45;105278;1300;62157;-81
2022/07/10 01:43:36;;;;;;;;;;;;;;;28.04;38.06;100389.20;105226;1299;62057;-81
2022/07/10 01:46:05;;;;;;;;;;;;;;;28.04;38.20;100386.45;105304;1300;73758;-81
2022/07/10 01:48:30;;;;;;;;;;;;;;;28.04;38.29;100385.41;105345;1299;76553;-81
2022/07/10 01:50:56;;;;;;;;;;;;;;;28.03;38.13;100384.89;105231;1300;62095;-81
2022/07/10 01:53:21;;;;;;;;;;;;;;;28.04;38.12;100386.66;105262;1300;62115;-81
2022/07/10 01:55:47;;;;;;;;;;;;;;;28.04;38.31;100389.02;105257;1300;62615;-81
2022/07/10 01:58:12;;;;;;;;;;;;;;;28.03;38.13;100387.61;105381;1300;62078;-81
2022/07/10 02:00:37;;;;;;;;;;;;;;;28.03;37.99;100387.42;105249;1300;73417;-81
2022/07/10 02:05:47;;;;;;;;;;;;;;;28.04;38.06;100389.58;105252;1300;62751;-81
2022/07/10 02:08:12;;;;;;;;;;;;;;;28.03;38.14;100387.25;105338;1299;62091;-81
2022/07/10 02:10:39;;;;;;;;;;;;;;;28.03;38.03;100389.09;105331;1300;62065;-81
2022/07/10 02:13:04;;;;;;;;;;;;;;;28.03;38.27;100386.04;105262;1300;62110;-81
2022/07/10 02:15:30;;;;;;;;;;;;;;;28.03;37.87;100385.49;105344;1300;62068;-81
2022/07/10 02:17:55;;;;;;;;;;;;;;;28.02;38.11;100382.64;105259;1297;62056;-81
2022/07/10 02:20:20;;;;;;;;;;;;;;;28.03;38.23;100380.27;105210;1300;62222;-81
2022/07/10 02:22:46;;;;;;;;;;;;;;;28.02;38.15;100383.17;105345;1300;62743;-81
2022/07/10 02:25:11;;;;;;;;;;;;;;;28.03;38.12;100383.90;105364;1299;62083;-81
2022/07/10 02:27:37;;;;;;;;;;;;;;;28.02;38.24;100386.06;105235;1300;62091;-81
2022/07/10 02:30:02;;;;;;;;;;;;;;;28.02;38.20;100386.06;105286;1300;62161;-81
2022/07/10 02:32:28;;;;;;;;;;;;;;;28.02;37.94;100385.39;105322;1299;62084;-81
2022/07/10 02:34:53;;;;;;;;;;;;;;;28.02;38.42;100386.89;105357;1299;63331;-81
2022/07/10 02:37:19;;;;;;;;;;;;;;;28.02;38.22;100389.39;105271;1297;62104;-81
2022/07/10 02:39:45;;;;;;;;;;;;;;;28.02;38.17;100389.39;105352;1300;62079;-81
2022/07/10 02:42:10;;;;;;;;;;;;;;;28.01;38.01;100389.80;105283;1300;62075;-81
2022/07/10 02:44:35;;;;;;;;;;;;;;;28.01;38.07;100390.71;105247;1300;62180;-81
2022/07/10 02:47:01;;;;;;;;;;;;;;;28.02;38.14;100393.77;105300;1300;62091;-81
2022/07/10 02:49:26;;;;;;;;;;;;;;;28.01;38.21;100393.59;105228;1300;63174;-81
2022/07/10 02:51:52;;;;;;;;;;;;;;;28.02;37.78;100397.56;105269;1300;62148;-81
2022/07/10 02:54:18;;;;;;;;;;;;;;;28.01;38.19;100395.94;105312;1300;61967;-81
2022/07/10 02:56:44;;;;;;;;;;;;;;;28.01;38.30;100399.24;105300;1300;60083;-81
2022/07/10 02:59:09;;;;;;;;;;;;;;;28.01;38.09;100404.13;105267;1300;62082;-81
2022/07/10 03:01:35;;;;;;;;;;;;;;;28.01;38.07;100404.52;105315;1298;62091;-81
2022/07/10 03:04:01;;;;;;;;;;;;;;;28.01;38.21;100406.11;105236;1300;62075;-81
2022/07/10 03:06:26;;;;;;;;;;;;;;;28.01;38.20;100407.00;105043;1300;62106;-81
2022/07/10 03:08:52;;;;;;;;;;;;;;;28.01;37.97;100407.20;105352;1300;62254;-81
2022/07/10 03:11:17;;;;;;;;;;;;;;;28.01;38.10;100401.22;105311;1299;62119;-81
2022/07/10 03:13:43;;;;;;;;;;;;;;;28.01;38.15;100403.23;105423;1300;62208;-81
2022/07/10 03:16:08;;;;;;;;;;;;;;;28.01;38.13;100400.34;105226;1298;62139;-81
2022/07/10 03:18:34;;;;;;;;;;;;;;;28.01;38.21;100393.42;105253;1300;61935;-81
2022/07/10 03:20:59;;;;;;;;;;;;;;;28.01;38.04;100397.97;105398;1299;62170;-81
2022/07/10 03:23:25;;;;;;;;;;;;;;;28.01;38.07;100398.52;105199;1300;76409;-81
2022/07/10 03:25:51;;;;;;;;;;;;;;;28.01;37.85;100403.91;105341;1300;62154;-81
2022/07/10 03:28:16;;;;;;;;;;;;;;;28.01;38.12;100402.27;105148;1300;63276;-81
2022/07/10 03:30:42;;;;;;;;;;;;;;;28.01;38.15;100397.98;105266;1299;62082;-81
2022/07/10 03:33:07;;;;;;;;;;;;;;;28.01;38.12;100397.97;105334;1300;62029;-81
2022/07/10 03:35:33;;;;;;;;;;;;;;;28.01;38.32;100392.38;105372;1300;62058;-81
2022/07/10 03:37:59;;;;;;;;;;;;;;;28.01;38.26;100392.69;105271;1300;62168;-81
2022/07/10 03:40:26;;;;;;;;;;;;;;;28.02;38.12;100391.39;105233;1300;62055;-81
2022/07/10 03:42:52;;;;;;;;;;;;;;;28.01;38.12;100389.42;105198;1300;61919;-81
2022/07/10 03:45:18;;;;;;;;;;;;;;;28.02;38.25;100387.77;105246;1299;62081;-81
2022/07/10 03:47:43;;;;;;;;;;;;;;;28.02;38.05;100386.71;105214;1300;62033;-81
2022/07/10 03:50:09;;;;;;;;;;;;;;;28.02;38.15;100388.98;105341;1300;62083;-81
2022/07/10 03:52:35;;;;;;;;;;;;;;;28.02;37.98;100386.14;105400;1300;62173;-81
2022/07/10 03:55:01;;;;;;;;;;;;;;;28.02;37.96;100392.44;105304;1300;62043;-81
2022/07/10 04:00:11;;;;;;;;;;;;;;;28.02;38.06;100385.94;105310;1300;62096;-81
2022/07/10 04:02:37;;;;;;;;;;;;;;;28.02;38.24;100389.15;105231;1300;61963;-81
2022/07/10 04:05:06;;;;;;;;;;;;;;;28.02;38.01;100390.45;105336;1299;62067;-81
2022/07/10 04:07:31;;;;;;;;;;;;;;;28.02;38.06;100392.44;105358;1300;76701;-81
2022/07/10 04:09:56;;;;;;;;;;;;;;;28.02;38.10;100390.27;105365;1300;62101;-81
2022/07/10 04:12:22;;;;;;;;;;;;;;;28.03;38.15;100391.13;105349;1299;62206;-81
2022/07/10 04:14:51;;;;;;;;;;;;;;;28.02;38.23;100385.02;105231;1300;62050;-81
2022/07/10 04:17:17;;;;;;;;;;;;;;;28.02;38.09;100385.19;105272;1300;62193;-81
2022/07/10 04:19:43;;;;;;;;;;;;;;;28.02;38.15;100387.89;105259;1299;62071;-81
2022/07/10 04:22:09;;;;;;;;;;;;;;;28.03;38.38;100392.95;105236;1300;62180;-81
2022/07/10 04:24:36;;;;;;;;;;;;;;;28.02;38.41;100400.55;105261;1300;62166;-81
2022/07/10 04:27:01;;;;;;;;;;;;;;;28.03;38.31;100397.43;105203;1300;62286;-81
2022/07/10 04:29:27;;;;;;;;;;;;;;;28.03;38.19;100403.23;105301;1300;61902;-81
2022/07/10 04:31:53;;;;;;;;;;;;;;;28.03;38.13;100402.15;105241;1300;62072;-81
2022/07/10 04:34:18;;;;;;;;;;;;;;;28.03;38.16;100399.62;105339;1299;62071;-81
2022/07/10 04:36:45;;;;;;;;;;;;;;;28.03;38.25;100405.58;105329;1300;63290;-81
2022/07/10 04:39:10;;;;;;;;;;;;;;;28.03;38.42;100407.37;105210;1300;76614;-81
2022/07/10 04:41:36;;;;;;;;;;;;;;;28.03;38.38;100405.03;105318;1300;62049;-81
2022/07/10 04:44:01;;;;;;;;;;;;;;;28.03;38.23;100405.91;105347;1300;62053;-81
2022/07/10 04:46:27;;;;;;;;;;;;;;;28.02;38.22;100414.65;105324;1300;62177;-81
2022/07/10 04:48:52;;;;;;;;;;;;;;;28.03;38.20;100414.80;105341;1299;62082;-81
2022/07/10 04:51:19;;;;;;;;;;;;;;;28.03;38.36;100418.94;105229;1300;75518;-81
2022/07/10 04:53:44;;;;;;;;;;;;;;;28.03;38.37;100425.98;105379;1300;62084;-81
2022/07/10 04:56:09;;;;;;;;;;;;;;;28.03;38.40;100430.70;105358;1300;62110;-81
2022/07/10 04:58:35;;;;;;;;;;;;;;;28.03;38.12;100430.70;105258;1300;62152;-81
2022/07/10 05:01:00;;;;;;;;;;;;;;;28.03;38.37;100427.61;105275;1300;62106;-81
2022/07/10 05:03:27;;;;;;;;;;;;;;;28.02;38.22;100427.84;105351;1300;62087;-81
2022/07/10 05:05:53;;;;;;;;;;;;;;;28.03;38.27;100430.84;105131;1302;62142;-81
2022/07/10 05:08:18;;;;;;;;;;;;;;;28.04;38.30;100430.27;105380;1299;62148;-81
2022/07/10 05:10:43;;;;;;;;;;;;;;;28.03;38.45;100432.87;105356;1300;62081;-81
2022/07/10 05:13:10;;;;;;;;;;;;;;;28.03;38.24;100435.34;105344;1300;62159;-81
2022/07/10 05:15:35;;;;;;;;;;;;;;;28.03;38.31;100436.27;105274;1300;62075;-81
2022/07/10 05:18:01;;;;;;;;;;;;;;;28.03;38.42;100435.90;105315;1300;62087;-81
2022/07/10 05:20:27;;;;;;;;;;;;;;;28.03;38.43;100431.42;105286;1300;62064;-81
2022/07/10 05:22:52;;;;;;;;;;;;;;;28.03;38.37;100430.45;105282;1299;60932;-81
2022/07/10 05:25:18;;;;;;;;;;;;;;;28.04;38.45;100429.94;105093;1302;62027;-81
2022/07/10 05:27:43;;;;;;;;;;;;;;;28.03;38.73;100431.02;105132;1299;62132;-81
2022/07/10 05:30:09;;;;;;;;;;;;;;;28.03;38.30;100429.95;105194;1300;59922;-81
2022/07/10 05:32:36;;;;;;;;;;;;;;;28.03;38.32;100430.29;105146;1302;62181;-81
2022/07/10 05:35:02;;;;;;;;;;;;;;;28.03;38.27;100430.47;105129;1300;72831;-81
2022/07/10 05:37:27;;;;;;;;;;;;;;;28.03;38.32;100429.02;105039;1300;62737;-81
2022/07/10 05:39:53;;;;;;;;;;;;;;;28.03;38.47;100431.18;105091;1300;62199;-81
2022/07/10 05:42:18;;;;;;;;;;;;;;;28.03;38.63;100431.02;104933;1302;62044;-81
2022/07/10 05:44:43;;;;;;;;;;;;;;;28.03;38.38;100429.55;104927;1302;63348;-81
2022/07/10 05:47:09;;;;;;;;;;;;;;;28.03;38.51;100431.35;104930;1302;62084;-81
2022/07/10 05:49:34;;;;;;;;;;;;;;;28.04;38.50;100428.64;104952;1300;62174;-82
2022/07/10 05:52:00;;;;;;;;;;;;;;;28.04;38.51;100429.69;104929;1301;62180;-81
2022/07/10 05:54:25;;;;;;;;;;;;;;;28.04;38.50;100428.74;104961;1299;62823;-81
2022/07/10 05:56:51;;;;;;;;;;;;;;;28.04;38.84;100432.91;105007;1301;62037;-81
2022/07/10 05:59:16;;;;;;;;;;;;;;;28.04;38.50;100434.70;104989;1302;62212;-81
2022/07/10 06:01:42;;;;;;;;;;;;;;;28.04;38.81;100437.05;104997;1302;62285;-81
2022/07/10 06:04:08;;;;;;;;;;;;;;;28.05;38.64;100433.39;105053;1301;62166;-81
2022/07/10 06:06:33;;;;;;;;;;;;;;;28.05;38.54;100428.87;105070;1299;62088;-81
2022/07/10 06:08:59;;;;;;;;;;;;;;;28.05;38.71;100425.08;105147;1302;62728;-81
2022/07/10 06:11:24;;;;;;;;;;;;;;;28.05;38.59;100430.84;105112;1301;73703;-81
2022/07/10 06:13:50;;;;;;;;;;;;;;;28.05;38.64;100427.02;105132;1299;61955;-81
2022/07/10 06:16:16;;;;;;;;;;;;;;;28.05;38.76;100428.30;105171;1300;62091;-81
2022/07/10 06:18:41;;;;;;;;;;;;;;;28.05;38.79;100427.05;105181;1302;62091;-81
2022/07/10 06:21:07;;;;;;;;;;;;;;;28.04;38.66;100428.91;105182;1300;62044;-81
2022/07/10 06:23:33;;;;;;;;;;;;;;;28.04;38.65;100431.59;105237;1302;62174;-82
2022/07/10 06:25:59;;;;;;;;;;;;;;;28.04;38.73;100430.16;105222;1299;62152;-82
2022/07/10 06:28:24;;;;;;;;;;;;;;;28.04;38.91;100429.82;104332;1300;1124352;-82
2022/07/10 06:30:50;;;;;;;;;;;;;;;28.04;38.86;100428.03;105111;1302;62205;-81
2022/07/10 06:33:15;;;;;;;;;;;;;;;28.05;38.60;100421.27;105173;1302;62116;-81
2022/07/10 06:35:41;;;;;;;;;;;;;;;28.04;38.55;100418.27;105171;1301;62055;-81
2022/07/10 06:38:06;;;;;;;;;;;;;;;28.04;38.74;100418.42;105167;1302;62137;-81
2022/07/10 06:40:35;;;;;;;;;;;;;;;28.05;38.70;100417.98;105145;1300;62494;-81
2022/07/10 06:43:00;;;;;;;;;;;;;;;28.06;38.94;100417.38;105173;1300;62016;-82
2022/07/10 06:45:26;;;;;;;;;;;;;;;28.07;38.79;100416.34;105188;1301;62084;-82
2022/07/10 06:47:58;;;;;;;;;;;;;;;28.08;38.65;100412.10;105192;1302;62071;-83
2022/07/10 06:50:34;;;;;;;;;;;;;;;28.08;38.89;100409.12;105171;1299;62697;-83
2022/07/10 06:53:00;;;;;;;;;;;;;;;28.09;38.77;100406.67;105242;1299;61976;-83
2022/07/10 06:55:25;;;;;;;;;;;;;;;28.11;38.82;100408.48;105175;1300;61985;-81
2022/07/10 06:57:51;;;;;;;;;;;;;;;28.12;38.73;100401.70;105162;1302;62107;-81
2022/07/10 07:00:16;;;;;;;;;;;;;;;28.13;38.78;100401.77;105168;1300;62075;-81
2022/07/10 07:02:42;;;;;;;;;;;;;;;28.14;38.87;100403.16;105217;1302;62088;-81
2022/07/10 07:05:08;;;;;;;;;;;;;;;28.14;38.85;100404.35;105152;1303;61337;-81
2022/07/10 07:07:33;;;;;;;;;;;;;;;28.15;39.09;100401.88;105231;1299;62180;-81
2022/07/10 07:10:01;;;;;;;;;;;;;;;28.16;38.93;100400.89;105195;1299;63228;-81
2022/07/10 07:12:27;;;;;;;;;;;;;;;28.17;38.95;100402.05;105223;1299;61960;-81
2022/07/10 07:14:53;;;;;;;;;;;;;;;28.18;39.06;100401.60;105194;1303;62096;-81
2022/07/10 07:17:22;;;;;;;;;;;;;;;28.19;38.89;100401.34;105157;1301;62092;-81
2022/07/10 07:25:16;;;;;;;;;;;;;;;28.21;38.97;100394.73;105169;1300;62177;-81
2022/07/10 07:27:41;;;;;;;;;;;;;;;28.22;38.88;100396.59;105178;1300;62184;-81
2022/07/10 07:30:08;;;;;;;;;;;;;;;28.23;39.01;100397.60;105163;1302;62146;-82
2022/07/10 07:32:33;;;;;;;;;;;;;;;28.23;39.18;100395.55;105243;1299;62062;-81
2022/07/10 07:34:59;;;;;;;;;;;;;;;28.24;38.98;100397.69;105155;1302;62110;-81
2022/07/10 07:37:34;;;;;;;;;;;;;;;28.24;39.06;100398.52;105308;1299;62038;-81
2022/07/10 07:40:00;;;;;;;;;;;;;;;28.24;39.09;100398.81;105250;1299;72890;-81
2022/07/10 07:42:25;;;;;;;;;;;;;;;28.24;39.06;100400.40;105093;1302;62218;-81
2022/07/10 07:44:51;;;;;;;;;;;;;;;28.24;38.98;100399.52;105176;1300;62216;-81
2022/07/10 07:47:16;;;;;;;;;;;;;;;28.24;38.99;100401.52;105153;1299;62104;-81
2022/07/10 07:49:42;;;;;;;;;;;;;;;28.23;39.17;100401.89;105193;1303;62194;-81
2022/07/10 07:52:08;;;;;;;;;;;;;;;28.24;39.17;100397.55;105121;1303;71187;-81
2022/07/10 07:54:35;;;;;;;;;;;;;;;28.23;39.25;100399.92;105178;1299;76543;-81
2022/07/10 07:57:00;;;;;;;;;;;;;;;28.24;39.46;100403.15;105157;1300;62085;-81
2022/07/10 07:59:25;;;;;;;;;;;;;;;28.24;39.22;100404.36;105209;1302;59833;-81
2022/07/10 08:01:51;;;;;;;;;;;;;;;28.24;39.18;100409.44;105157;1300;62113;-81
2022/07/10 08:04:16;;;;;;;;;;;;;;;28.25;39.27;100408.64;105178;1302;62242;-81
2022/07/10 08:06:42;;;;;;;;;;;;;;;28.24;39.11;100403.99;105247;1299;62079;-81
2022/07/10 08:09:07;;;;;;;;;;;;;;;28.24;39.25;100405.79;105154;1300;62171;-81
2022/07/10 08:11:33;;;;;;;;;;;;;;;28.24;39.41;100405.08;105202;1300;62065;-81
2022/07/10 08:13:58;;;;;;;;;;;;;;;28.24;39.13;100407.76;105157;1300;62062;-81
2022/07/10 08:16:25;;;;;;;;;;;;;;;28.24;39.36;100406.17;105146;1300;62062;-81
2022/07/10 08:18:50;;;;;;;;;;;;;;;28.24;39.33;100403.79;105314;1299;62109;-81
2022/07/10 08:21:16;;;;;;;;;;;;;;;28.24;39.36;100405.83;105162;1302;62101;-81
2022/07/10 08:23:42;;;;;;;;;;;;;;;28.24;39.23;100403.27;105159;1299;62036;-81
2022/07/10 08:26:07;;;;;;;;;;;;;;;28.24;39.25;100400.95;105180;1300;62117;-81
2022/07/10 08:28:33;;;;;;;;;;;;;;;28.24;39.33;100401.28;105245;1299;62045;-81
2022/07/10 08:30:58;;;;;;;;;;;;;;;28.24;39.27;100403.42;105180;1300;62081;-81
2022/07/10 08:33:24;;;;;;;;;;;;;;;28.24;39.13;100402.16;105117;1300;62559;-81
2022/07/10 08:35:49;;;;;;;;;;;;;;;28.25;39.26;100396.66;105118;1300;62097;-82
2022/07/10 08:38:15;;;;;;;;;;;;;;;28.25;39.27;100392.46;105111;1300;62190;-81
2022/07/10 08:40:40;;;;;;;;;;;;;;;28.25;39.36;100390.30;105233;1300;62084;-81
2022/07/10 08:43:06;;;;;;;;;;;;;;;28.26;39.35;100389.65;105225;1300;62196;-81
2022/07/10 08:45:33;;;;;;;;;;;;;;;28.26;39.53;100386.91;105244;1299;61994;-81
2022/07/10 08:48:01;;;;;;;;;;;;;;;28.27;39.79;100388.66;105247;1299;62087;-81
2022/07/10 08:50:26;;;;;;;;;;;;;;;28.27;39.68;100386.66;104923;1300;72634;-81
2022/07/10 08:52:55;;;;;;;;;;;;;;;28.27;39.42;100387.23;105239;1300;62078;-81
2022/07/10 08:55:23;;;;;;;;;;;;;;;28.27;39.41;100381.06;105250;1300;61961;-81
2022/07/10 08:57:49;;;;;;;;;;;;;;;28.28;39.35;100380.45;105282;1299;62087;-81
2022/07/10 09:00:14;;;;;;;;;;;;;;;28.28;39.55;100382.06;105187;1300;62171;-81
2022/07/10 09:02:40;;;;;;;;;;;;;;;28.28;39.54;100376.26;105246;1299;62225;-81
2022/07/10 09:05:08;;;;;;;;;;;;;;;28.29;39.49;100377.84;105206;1300;62094;-81
2022/07/10 09:07:36;;;;;;;;;;;;;;;28.29;39.63;100379.06;105186;1299;61931;-81
2022/07/10 09:10:05;;;;;;;;;;;;;;;28.29;39.69;100375.77;105155;1300;73016;-81
2022/07/10 09:12:33;;;;;;;;;;;;;;;28.30;39.39;100372.66;105119;1300;76615;-81
2022/07/10 09:15:14;;;;;;;;;;;;;;;28.30;39.65;100375.57;105162;1300;61975;-81
2022/07/10 09:17:59;;;;;;;;;;;;;;;28.29;39.76;100371.27;105166;1300;61861;-81
2022/07/10 09:20:32;;;;;;;;;;;;;;;28.29;39.58;100372.14;105154;1300;73823;-81
2022/07/10 09:22:58;;;;;;;;;;;;;;;28.29;39.59;100363.62;105033;1300;75560;-81
2022/07/10 09:25:31;;;;;;;;;;;;;;;28.29;39.54;100362.20;105168;1300;62207;-81
2022/07/10 09:27:59;;;;;;;;;;;;;;;28.30;39.60;100356.58;105262;1299;62045;-81
2022/07/10 09:30:35;;;;;;;;;;;;;;;28.29;39.69;100354.23;105238;1299;73857;-81
2022/07/10 09:33:23;;;;;;;;;;;;;;;28.30;39.67;100353.65;105225;1300;75886;-81
2022/07/10 09:36:05;;;;;;;;;;;;;;;28.30;39.91;100348.20;105237;1298;61960;-81
2022/07/10 09:38:42;;;;;;;;;;;;;;;28.30;39.80;100346.40;105185;1300;62106;-81
2022/07/10 09:41:18;;;;;;;;;;;;;;;28.31;39.78;100342.70;105241;1300;72663;-81
2022/07/10 09:43:50;;;;;;;;;;;;;;;28.31;39.86;100340.90;105230;1299;76503;-81
2022/07/10 09:46:16;;;;;;;;;;;;;;;28.31;39.85;100334.19;105253;1299;61808;-81
2022/07/10 09:48:42;;;;;;;;;;;;;;;28.31;39.87;100331.23;105277;1299;62084;-81
2022/07/10 09:51:11;;;;;;;;;;;;;;;28.31;39.91;100332.52;105227;1299;62828;-81
2022/07/10 09:53:39;;;;;;;;;;;;;;;28.31;39.88;100331.44;105158;1299;76337;-81
2022/07/10 09:56:07;;;;;;;;;;;;;;;28.31;39.83;100332.73;105171;1300;61989;-81
2022/07/10 09:58:35;;;;;;;;;;;;;;;28.31;39.79;100331.56;105230;1299;61962;-81
2022/07/10 10:01:01;;;;;;;;;;;;;;;28.31;40.02;100322.59;104987;1300;73811;-81
2022/07/10 10:03:27;;;;;;;;;;;;;;;28.31;40.18;100316.20;105170;1299;61929;-82
2022/07/10 10:05:54;;;;;;;;;;;;;;;28.32;40.15;100316.33;105362;1299;62003;-82
2022/07/10 10:08:20;;;;;;;;;;;;;;;28.32;40.10;100317.94;105384;1299;62221;-81
2022/07/10 10:10:47;;;;;;;;;;;;;;;28.33;40.05;100314.95;105310;1300;62060;-82
2022/07/10 10:13:14;;;;;;;;;;;;;;;28.33;40.11;100313.45;105414;1297;62036;-82
2022/07/10 10:15:40;;;;;;;;;;;;;;;28.34;40.25;100313.39;105370;1300;62002;-82
2022/07/10 10:18:05;;;;;;;;;;;;;;;28.34;39.97;100310.98;105224;1299;62286;-82
2022/07/10 10:20:38;;;;;;;;;;;;;;;28.35;40.05;100309.15;105423;1299;62053;-82
2022/07/10 10:23:10;;;;;;;;;;;;;;;28.35;40.13;100306.43;105366;1300;75708;-82
2022/07/10 10:25:35;;;;;;;;;;;;;;;28.35;40.04;100307.52;105454;1299;61563;-82
2022/07/10 10:28:02;;;;;;;;;;;;;;;28.35;40.18;100302.77;105328;1299;62101;-82
2022/07/10 10:30:28;;;;;;;;;;;;;;;28.36;40.21;100294.55;105148;1300;72824;-82
2022/07/10 10:32:54;;;;;;;;;;;;;;;28.36;40.10;100296.55;105151;1300;62186;-82
2022/07/10 10:35:38;;;;;;;;;;;;;;;28.35;40.40;100298.21;105254;1299;62661;-81
2022/07/10 10:38:04;;;;;;;;;;;;;;;28.35;40.27;100298.01;105122;1302;61979;-81
2022/07/10 10:40:31;;;;;;;;;;;;;;;28.35;40.38;100294.02;105253;1299;62084;-81
2022/07/10 10:42:57;;;;;;;;;;;;;;;28.35;40.27;100290.99;105157;1300;62120;-81
2022/07/10 10:45:34;;;;;;;;;;;;;;;28.34;40.28;100282.58;105160;1299;62859;-81
2022/07/10 10:48:12;;;;;;;;;;;;;;;28.34;40.28;100286.55;105250;1299;61935;-81
2022/07/10 10:50:50;;;;;;;;;;;;;;;28.34;40.47;100284.20;105248;1299;72722;-82
2022/07/10 10:53:20;;;;;;;;;;;;;;;28.34;40.43;100280.65;105200;1300;76621;-81
2022/07/10 10:56:05;;;;;;;;;;;;;;;28.34;40.21;100274.13;105188;1300;62030;-81
2022/07/10 10:58:38;;;;;;;;;;;;;;;28.34;40.24;100276.46;105256;1299;61963;-81
2022/07/10 11:01:05;;;;;;;;;;;;;;;28.34;40.39;100276.30;105069;1300;72838;-81
2022/07/10 11:03:30;;;;;;;;;;;;;;;28.33;40.18;100275.83;105233;1299;62083;-81
2022/07/10 11:05:56;;;;;;;;;;;;;;;28.33;40.61;100273.46;105240;1299;62062;-81
2022/07/10 11:08:37;;;;;;;;;;;;;;;28.34;40.33;100271.99;105201;1300;62091;-81
2022/07/10 11:11:21;;;;;;;;;;;;;;;28.33;40.44;100265.89;105201;1299;73788;-81
2022/07/10 11:13:47;;;;;;;;;;;;;;;28.33;40.51;100263.20;105224;1300;75582;-81
2022/07/10 11:16:12;;;;;;;;;;;;;;;28.33;40.34;100261.89;105257;1299;62085;-81
2022/07/10 11:18:38;;;;;;;;;;;;;;;28.33;40.36;100257.40;105267;1299;62110;-81
2022/07/10 11:21:04;;;;;;;;;;;;;;;28.33;40.31;100258.09;105257;1299;62050;-81
2022/07/10 11:23:45;;;;;;;;;;;;;;;28.33;40.38;100259.73;105249;1299;62197;-81
2022/07/10 11:26:11;;;;;;;;;;;;;;;28.33;40.30;100252.90;105192;1302;62090;-81
2022/07/10 11:28:47;;;;;;;;;;;;;;;28.33;40.39;100252.71;105195;1300;62085;-81
2022/07/10 11:31:13;;;;;;;;;;;;;;;28.32;40.34;100243.86;105230;1299;72852;-81
2022/07/10 11:33:43;;;;;;;;;;;;;;;28.33;40.57;100248.75;105042;1300;62209;-81
2022/07/10 11:36:13;;;;;;;;;;;;;;;28.32;40.62;100261.61;105193;1300;62098;-81
2022/07/10 11:38:40;;;;;;;;;;;;;;;28.32;40.59;100271.21;105154;1300;62774;-81
2022/07/10 11:41:11;;;;;;;;;;;;;;;28.32;40.69;100296.55;105195;1299;72691;-81
2022/07/10 11:43:45;;;;;;;;;;;;;;;28.32;40.52;100315.55;105185;1299;75671;-81
2022/07/10 11:46:11;;;;;;;;;;;;;;;28.32;40.46;100313.96;105193;1302;62064;-81
2022/07/10 11:48:43;;;;;;;;;;;;;;;28.32;40.58;100311.64;105148;1300;61966;-81
2022/07/10 11:51:18;;;;;;;;;;;;;;;28.31;40.67;100306.64;105224;1299;73076;-81
2022/07/10 11:54:03;;;;;;;;;;;;;;;28.31;40.73;100306.84;105222;1299;75254;-81
2022/07/10 11:56:35;;;;;;;;;;;;;;;28.30;40.56;100302.02;105166;1302;62094;-81
2022/07/10 11:59:01;;;;;;;;;;;;;;;28.30;40.76;100292.11;105257;1299;62113;-81
2022/07/10 12:01:28;;;;;;;;;;;;;;;28.30;40.64;100291.39;105275;1300;62059;-81
2022/07/10 12:03:57;;;;;;;;;;;;;;;28.29;40.71;100288.38;105156;1300;76581;-81
2022/07/10 12:06:23;;;;;;;;;;;;;;;28.29;40.52;100279.77;105156;1300;61934;-81
2022/07/10 12:08:48;;;;;;;;;;;;;;;28.28;40.65;100273.45;105041;1300;62123;-81
2022/07/10 12:11:18;;;;;;;;;;;;;;;28.28;40.61;100270.44;105240;1299;72653;-81
2022/07/10 12:13:44;;;;;;;;;;;;;;;28.28;40.75;100267.55;105151;1300;61976;-81
2022/07/10 12:16:10;;;;;;;;;;;;;;;28.27;40.85;100267.96;105168;1300;62150;-81
2022/07/10 12:18:35;;;;;;;;;;;;;;;28.28;40.99;100269.76;105264;1299;62074;-81
2022/07/10 12:21:01;;;;;;;;;;;;;;;28.28;40.83;100265.95;105164;1300;62090;-81
2022/07/10 12:23:27;;;;;;;;;;;;;;;28.27;40.79;100264.58;105158;1300;62801;-81
2022/07/10 12:25:53;;;;;;;;;;;;;;;28.27;40.85;100259.14;105132;1300;62085;-81
2022/07/10 12:28:18;;;;;;;;;;;;;;;28.27;41.21;100257.52;105295;1299;62086;-81
2022/07/10 12:30:45;;;;;;;;;;;;;;;28.28;41.03;100252.17;105239;1299;62097;-81
2022/07/10 12:33:16;;;;;;;;;;;;;;;28.27;41.03;100245.36;105211;1299;62235;-81
2022/07/10 12:35:48;;;;;;;;;;;;;;;28.28;41.03;100241.33;105237;1298;76488;-81